Aeroporto :
LOGIN :

Iscrizione | Disclaimer

   EN    FR    IT 

 










Sommario :    VFR   VFR Marginale   IFR   IFR Intensivo   IFR Molto Intensivo
Visibilità : 
Base nubi : 
>= 8 km
>= 3000ft
5 / 8 km
1000 / 3000 ft
1500m / 5 km
500 / 1000 ft
800 / 1500m
200 / 500 ft
< 800m
< 200 ft
Simboli :   Temporali  Nebbia  Neve Forte  Precipitazioni Forti  Vento > 20 kt
SIGMETs :   Varie  Temporali  Ghiacco  Turbolenza  Onda orograficha  Ceneri Vulcaniche






- Altitudine del aeroporto : 33 ft
- Codice IATA : MHZ


EGUN - RAF Mildenhall

ULTIMO METAR :
  • 201556Z AUTO 11010KT 9999 CLR 05/02 A2984 RMK AO2 SLP108 T00480023

METARs OBSOLETI :
  • 201456Z AUTO 12014KT 9999 CLR 06/02 A2986 RMK AO2 SLP115 T00600021
  • 201356Z AUTO 13013KT 9999 CLR 07/03 A2988 RMK AO2 SLP122 T00720029

TAF TAF EGUN
Valido dal 20 a 12 ore il 21 a 18 ore UTC


201157Z 2012/2118 13010KT 9999 SCT040 QNH2992INS
TEMPO 2100/2107 BKN020
BECMG 2106/2107 12009KT 9999 BKN010 QNH2963INS TX09/2015Z TN04/2106Z



MetMap, La meteo Aeronautica in un colpo d'occhio ! - Copyright ORBIFLY Dicembre 2007 - Disclaimer

ORBIFLY MET'MAP TEAM :

Programmazione e sviluppo : Alexandra Zaïnal
Concezione e sviluppo : Baudouin d'Aumeries
Co-Programmazione e sviluppo : Marc-Olivier Méhu
Supporto tecnico e logistico : Manuel Goepfert
Aiuto per la traduzione : Arnaldo La Scala

Contatto : metmap@orbifly.com




FONTI E CREDITI :

   NOAA